createdAt,value
2019-04-27T00:00:00.065Z,7.30
2019-04-27T00:02:47.357Z,7.50
2019-04-27T00:05:54.248Z,7.60
2019-04-27T00:08:38.974Z,7.40
2019-04-27T00:11:29.938Z,7.40
2019-04-27T00:14:00.053Z,7.50
2019-04-27T00:16:50.913Z,7.20
2019-04-27T00:19:36.496Z,7.30
2019-04-27T00:22:25.404Z,7.30
2019-04-27T00:24:55.938Z,7.30
2019-04-27T00:27:26.326Z,7.20
2019-04-27T00:29:56.452Z,7.20
2019-04-27T00:32:26.633Z,7.40
2019-04-27T00:34:57.075Z,7.00
2019-04-27T00:37:35.650Z,7.00
2019-04-27T00:40:27.630Z,7.00
2019-04-27T00:42:58.232Z,6.90
2019-04-27T00:45:28.674Z,6.90
2019-04-27T00:47:59.923Z,7.00
2019-04-27T00:50:30.131Z,6.90
2019-04-27T00:53:00.003Z,6.90
2019-04-27T00:55:29.986Z,7.00
2019-04-27T00:58:17.454Z,7.10
2019-04-27T01:01:08.431Z,7.10
2019-04-27T01:03:59.287Z,7.20
2019-04-27T01:06:29.119Z,7.20
2019-04-27T01:08:59.586Z,7.10
2019-04-27T01:11:29.968Z,7.20
2019-04-27T01:14:00.090Z,7.20
2019-04-27T01:16:30.712Z,7.20
2019-04-27T01:19:00.865Z,7.30
2019-04-27T01:21:31.234Z,7.60
2019-04-27T01:24:01.140Z,7.50
2019-04-27T01:26:49.929Z,7.30
2019-04-27T01:29:22.358Z,7.40
2019-04-27T01:31:52.544Z,7.30
2019-04-27T01:34:23.199Z,7.10
2019-04-27T01:36:53.563Z,7.00
2019-04-27T01:39:23.779Z,7.00
2019-04-27T01:41:53.874Z,7.30
2019-04-27T01:44:24.050Z,7.50
2019-04-27T01:46:54.402Z,8.00
2019-04-27T01:49:24.783Z,8.60
2019-04-27T01:51:54.877Z,8.50
2019-04-27T01:54:28.975Z,8.70
2019-04-27T01:57:00.684Z,8.90
2019-04-27T01:59:31.331Z,9.00
2019-04-27T02:02:32.637Z,9.10
2019-04-27T02:05:31.466Z,9.20
2019-04-27T02:08:01.325Z,9.30
2019-04-27T02:10:31.742Z,9.40
2019-04-27T02:13:01.880Z,9.60
2019-04-27T02:15:32.261Z,9.50
2019-04-27T02:18:02.752Z,9.80
2019-04-27T02:20:32.855Z,10.10
2019-04-27T02:23:03.125Z,10.00
2019-04-27T02:25:33.036Z,10.10
2019-04-27T02:28:09.712Z,10.10
2019-04-27T02:31:02.114Z,10.10
2019-04-27T02:33:44.970Z,10.10
2019-04-27T02:36:15.736Z,10.20
2019-04-27T02:38:45.920Z,10.20
2019-04-27T02:41:16.366Z,10.20
2019-04-27T02:43:51.513Z,10.10
2019-04-27T02:46:21.939Z,10.10
2019-04-27T02:48:59.881Z,10.20
2019-04-27T02:51:31.904Z,10.10
2019-04-27T02:54:01.773Z,10.10
2019-04-27T02:56:31.656Z,10.10
2019-04-27T02:59:01.485Z,10.00
2019-04-27T03:01:34.327Z,10.00
2019-04-27T03:04:04.241Z,10.00
2019-04-27T03:06:34.078Z,10.00
2019-04-27T03:09:04.461Z,10.00
2019-04-27T03:11:34.394Z,9.90
2019-04-27T03:14:34.248Z,10.00
2019-04-27T03:17:15.337Z,10.00
2019-04-27T03:19:53.063Z,9.90
2019-04-27T03:22:31.050Z,9.90
2019-04-27T03:25:20.422Z,9.90
2019-04-27T03:27:52.136Z,9.90
2019-04-27T03:30:23.452Z,9.90
2019-04-27T03:32:56.676Z,9.90
2019-04-27T03:35:25.630Z,9.80
2019-04-27T03:37:55.521Z,9.90
2019-04-27T03:40:25.355Z,9.90
2019-04-27T03:42:59.379Z,9.80
2019-04-27T03:45:29.854Z,9.80
2019-04-27T03:48:00.588Z,9.80
2019-04-27T03:50:35.591Z,9.80
2019-04-27T03:53:23.412Z,9.70
2019-04-27T03:55:56.248Z,9.70
2019-04-27T03:58:39.573Z,9.70
2019-04-27T04:01:10.561Z,9.70
2019-04-27T04:03:40.571Z,9.70
2019-04-27T04:06:10.910Z,9.80
2019-04-27T04:08:41.611Z,9.70
2019-04-27T04:11:19.859Z,9.60
2019-04-27T04:13:59.982Z,9.60
2019-04-27T04:16:34.652Z,9.60
2019-04-27T04:19:06.522Z,9.60
2019-04-27T04:21:39.746Z,9.60
2019-04-27T04:24:11.883Z,9.70
2019-04-27T04:26:41.126Z,9.80
2019-04-27T04:29:11.305Z,9.90
2019-04-27T04:31:41.463Z,9.90
2019-04-27T04:34:12.401Z,9.90
2019-04-27T04:36:42.895Z,10.00
2019-04-27T04:39:12.977Z,10.00
2019-04-27T04:41:59.709Z,10.10
2019-04-27T04:44:50.529Z,10.20
2019-04-27T04:47:30.727Z,10.20
2019-04-27T04:50:10.801Z,10.10
2019-04-27T04:52:32.203Z,10.20
2019-04-27T04:55:02.576Z,10.20
2019-04-27T04:57:32.788Z,10.30
2019-04-27T05:00:02.700Z,10.30
2019-04-27T05:02:32.589Z,10.40
2019-04-27T05:05:02.510Z,10.40
2019-04-27T05:07:32.362Z,10.30
2019-04-27T05:10:02.275Z,10.30
2019-04-27T05:12:32.131Z,10.20
2019-04-27T05:15:01.982Z,10.30
2019-04-27T05:17:31.842Z,10.30
2019-04-27T05:20:05.079Z,10.20
2019-04-27T05:22:34.930Z,10.20
2019-04-27T05:25:05.067Z,10.20
2019-04-27T05:27:34.929Z,10.20
2019-04-27T05:30:05.639Z,10.10
2019-04-27T05:32:35.503Z,10.10
2019-04-27T05:35:05.491Z,10.10
2019-04-27T05:37:35.348Z,10.00
2019-04-27T05:40:05.205Z,9.90
2019-04-27T05:42:35.051Z,9.90
2019-04-27T05:45:23.000Z,9.80
2019-04-27T05:47:58.969Z,9.70
2019-04-27T05:50:36.162Z,9.70
2019-04-27T05:53:01.627Z,9.60
2019-04-27T05:55:32.034Z,9.50
2019-04-27T05:58:02.450Z,9.40
2019-04-27T06:00:32.480Z,9.30
2019-04-27T06:03:03.208Z,9.30
2019-04-27T06:05:33.558Z,9.20
2019-04-27T06:08:03.679Z,9.10
2019-04-27T06:10:33.535Z,9.00
2019-04-27T06:13:03.413Z,9.00
2019-04-27T06:15:33.265Z,8.90
2019-04-27T06:18:03.378Z,8.90
2019-04-27T06:20:33.203Z,8.90
2019-04-27T06:23:03.116Z,8.80
2019-04-27T06:25:32.978Z,8.80
2019-04-27T06:28:02.874Z,8.80
2019-04-27T06:30:32.712Z,8.80
2019-04-27T06:33:03.120Z,8.80
2019-04-27T06:35:32.939Z,8.90
2019-04-27T06:38:03.317Z,8.80
2019-04-27T06:40:35.422Z,8.90
2019-04-27T06:43:05.278Z,8.90
2019-04-27T06:45:35.671Z,8.90
2019-04-27T06:48:05.782Z,8.90
2019-04-27T06:50:36.415Z,8.90
2019-04-27T06:53:06.556Z,8.80
2019-04-27T06:55:36.673Z,8.70
2019-04-27T06:58:08.759Z,8.70
2019-04-27T07:00:39.545Z,8.70
2019-04-27T07:03:10.706Z,8.60
2019-04-27T07:05:40.955Z,8.60
2019-04-27T07:08:11.069Z,8.60
2019-04-27T07:10:41.207Z,8.70
2019-04-27T07:13:11.070Z,8.60
2019-04-27T07:15:41.162Z,8.60
2019-04-27T07:18:11.279Z,8.50
2019-04-27T07:20:41.120Z,8.50
2019-04-27T07:23:11.221Z,8.50
2019-04-27T07:25:41.131Z,8.50
2019-04-27T07:28:11.094Z,8.40
2019-04-27T07:30:41.647Z,8.40
2019-04-27T07:33:11.850Z,8.40
2019-04-27T07:35:42.498Z,8.40
2019-04-27T07:38:12.870Z,8.40
2019-04-27T07:40:42.994Z,8.30
2019-04-27T07:43:31.762Z,8.30
2019-04-27T07:46:01.853Z,8.30
2019-04-27T07:48:31.726Z,8.40
2019-04-27T07:51:01.870Z,8.40
2019-04-27T07:53:32.292Z,8.40
2019-04-27T07:56:02.652Z,8.40
2019-04-27T07:58:33.177Z,8.30
2019-04-27T08:01:03.610Z,8.30
2019-04-27T08:03:34.324Z,8.40
2019-04-27T08:06:05.038Z,8.40
2019-04-27T08:08:34.925Z,8.50
2019-04-27T08:11:05.364Z,8.50
2019-04-27T08:13:36.046Z,8.60
2019-04-27T08:16:06.168Z,8.70
2019-04-27T08:18:36.045Z,8.80
2019-04-27T08:21:06.256Z,8.80
2019-04-27T08:23:36.145Z,8.80
2019-04-27T08:26:08.874Z,8.80
2019-04-27T08:28:48.682Z,8.90
2019-04-27T08:31:29.795Z,9.00
2019-04-27T08:34:00.082Z,9.00
2019-04-27T08:36:30.723Z,9.20
2019-04-27T08:39:01.707Z,9.20
2019-04-27T08:41:31.926Z,9.30
2019-04-27T08:44:02.038Z,9.30
2019-04-27T08:46:31.940Z,9.30
2019-04-27T08:49:02.031Z,9.40
2019-04-27T08:51:32.599Z,9.50
2019-04-27T08:54:02.762Z,9.60
2019-04-27T08:56:32.659Z,10.10
2019-04-27T08:59:02.514Z,10.20
2019-04-27T09:01:32.487Z,10.00
2019-04-27T09:04:02.374Z,10.00
2019-04-27T09:06:32.419Z,9.80
2019-04-27T09:09:09.570Z,9.70
2019-04-27T09:12:01.585Z,9.70
2019-04-27T09:14:46.622Z,9.70
2019-04-27T09:17:34.671Z,9.70
2019-04-27T09:20:12.853Z,9.70
2019-04-27T09:22:43.326Z,9.80
2019-04-27T09:25:14.194Z,9.70
2019-04-27T09:27:44.927Z,9.60
2019-04-27T09:30:15.319Z,9.60
2019-04-27T09:32:45.462Z,9.50
2019-04-27T09:35:16.229Z,9.50
2019-04-27T09:37:46.126Z,9.60
2019-04-27T09:40:17.154Z,9.60
2019-04-27T09:42:48.936Z,9.80
2019-04-27T09:45:19.143Z,9.90
2019-04-27T09:47:49.035Z,10.00
2019-04-27T09:50:19.157Z,10.20
2019-04-27T09:52:49.022Z,10.40
2019-04-27T09:55:19.072Z,10.30
2019-04-27T09:57:49.456Z,10.30
2019-04-27T10:00:20.896Z,10.30
2019-04-27T10:02:51.312Z,10.40
2019-04-27T10:05:21.210Z,10.20
2019-04-27T10:07:51.077Z,10.40
2019-04-27T10:10:20.966Z,10.40
2019-04-27T10:12:50.978Z,10.90
2019-04-27T10:15:20.882Z,11.60
2019-04-27T10:17:50.854Z,12.00
2019-04-27T10:20:20.894Z,12.00
2019-04-27T10:22:50.973Z,12.10
2019-04-27T10:25:23.923Z,12.00
2019-04-27T10:28:00.821Z,12.00
2019-04-27T10:30:31.852Z,12.50
2019-04-27T10:33:02.036Z,12.70
2019-04-27T10:35:32.563Z,12.30
2019-04-27T10:38:03.146Z,12.20
2019-04-27T10:40:33.372Z,12.00
2019-04-27T10:43:03.887Z,11.60
2019-04-27T10:45:35.784Z,11.80
2019-04-27T10:48:05.701Z,11.70
2019-04-27T10:50:36.600Z,11.70
2019-04-27T10:53:07.005Z,11.50
2019-04-27T10:55:37.323Z,11.50
2019-04-27T10:58:07.494Z,11.60
2019-04-27T11:00:42.706Z,11.70
2019-04-27T11:03:16.613Z,11.90
2019-04-27T11:06:05.510Z,12.20
2019-04-27T11:08:35.802Z,12.50
2019-04-27T11:11:05.959Z,12.30
2019-04-27T11:13:38.285Z,12.30
2019-04-27T11:16:08.276Z,12.00
2019-04-27T11:18:38.406Z,11.80
2019-04-27T11:21:08.572Z,12.10
2019-04-27T11:23:39.003Z,11.80
2019-04-27T11:26:08.901Z,11.90
2019-04-27T11:28:39.126Z,11.90
2019-04-27T11:31:09.359Z,12.00
2019-04-27T11:33:39.583Z,12.50
2019-04-27T11:36:36.155Z,12.80
2019-04-27T11:39:12.373Z,13.00
2019-04-27T11:41:43.077Z,12.70
2019-04-27T11:44:13.237Z,12.70
2019-04-27T11:46:43.115Z,12.70
2019-04-27T11:49:15.211Z,12.50
2019-04-27T11:51:46.632Z,12.10
2019-04-27T11:54:16.873Z,11.90
2019-04-27T11:56:47.292Z,12.00
2019-04-27T11:59:17.607Z,11.90
2019-04-27T12:01:47.903Z,11.80
2019-04-27T12:04:18.700Z,11.80
2019-04-27T12:06:48.894Z,11.90
2019-04-27T12:09:19.446Z,11.70
2019-04-27T12:11:49.960Z,11.70
2019-04-27T12:14:20.269Z,11.70
2019-04-27T12:16:50.796Z,11.60
2019-04-27T12:19:21.271Z,11.70
2019-04-27T12:21:51.274Z,11.80
2019-04-27T12:24:21.293Z,11.70
2019-04-27T12:27:08.694Z,11.80
2019-04-27T12:29:56.381Z,11.70
2019-04-27T12:32:26.932Z,12.00
2019-04-27T12:34:56.800Z,12.50
2019-04-27T12:37:26.861Z,12.90
2019-04-27T12:39:57.655Z,13.00
2019-04-27T12:42:28.343Z,12.50
2019-04-27T12:44:58.512Z,12.10
2019-04-27T12:47:28.420Z,11.90
2019-04-27T12:49:58.959Z,12.00
2019-04-27T12:52:28.907Z,11.80
2019-04-27T12:55:17.068Z,12.40
2019-04-27T12:58:11.914Z,12.50
2019-04-27T13:00:50.735Z,13.00
2019-04-27T13:03:20.650Z,12.80
2019-04-27T13:05:50.522Z,13.00
2019-04-27T13:08:20.482Z,13.00
2019-04-27T13:10:50.530Z,13.70
2019-04-27T13:13:20.783Z,13.40
2019-04-27T13:15:50.734Z,13.00
2019-04-27T13:18:20.643Z,13.40
2019-04-27T13:20:50.516Z,13.10
2019-04-27T13:23:20.382Z,12.70
2019-04-27T13:25:50.288Z,12.40
2019-04-27T13:28:20.144Z,12.30
2019-04-27T13:30:50.001Z,11.70
2019-04-27T13:33:19.883Z,11.30
2019-04-27T13:35:50.000Z,10.80
2019-04-27T13:38:19.867Z,10.40
2019-04-27T13:41:11.822Z,10.20
2019-04-27T13:43:41.694Z,10.20
2019-04-27T13:46:29.459Z,10.20
2019-04-27T13:49:17.852Z,10.00
2019-04-27T13:52:07.369Z,9.80
2019-04-27T13:54:37.600Z,9.70
2019-04-27T13:57:07.703Z,9.60
2019-04-27T13:59:37.719Z,9.50
2019-04-27T14:02:07.578Z,9.50
2019-04-27T14:04:37.732Z,9.50
2019-04-27T14:07:09.058Z,9.50
2019-04-27T14:09:39.686Z,9.40
2019-04-27T14:12:16.452Z,9.40
2019-04-27T14:14:46.725Z,9.60
2019-04-27T14:17:19.148Z,9.70
2019-04-27T14:19:49.275Z,9.80
2019-04-27T14:22:19.416Z,9.90
2019-04-27T14:24:49.319Z,9.80
2019-04-27T14:27:20.835Z,9.70
2019-04-27T14:29:51.647Z,9.60
2019-04-27T14:32:21.791Z,9.50
2019-04-27T14:34:52.043Z,9.50
2019-04-27T14:37:21.992Z,9.30
2019-04-27T14:39:51.899Z,9.20
2019-04-27T14:42:21.839Z,9.20
2019-04-27T14:44:53.035Z,9.20
2019-04-27T14:47:22.979Z,9.20
2019-04-27T14:49:53.150Z,9.20
2019-04-27T14:52:23.358Z,9.10
2019-04-27T14:54:53.798Z,9.00
2019-04-27T14:57:23.914Z,8.90
2019-04-27T14:59:54.176Z,8.70
2019-04-27T15:02:24.026Z,8.70
2019-04-27T15:04:54.447Z,8.70
2019-04-27T15:07:25.118Z,8.70
2019-04-27T15:09:57.480Z,8.70
2019-04-27T15:12:30.471Z,8.70
2019-04-27T15:15:00.748Z,8.60
2019-04-27T15:17:31.230Z,8.60
2019-04-27T15:20:06.154Z,8.60
2019-04-27T15:22:36.418Z,8.60
2019-04-27T15:25:13.109Z,8.50
2019-04-27T15:27:44.626Z,8.60
2019-04-27T15:30:22.297Z,8.40
2019-04-27T15:33:15.929Z,7.90
2019-04-27T15:35:48.803Z,7.40
2019-04-27T15:38:22.827Z,7.30
2019-04-27T15:41:10.148Z,7.40
2019-04-27T15:43:42.098Z,7.40
2019-04-27T15:46:12.594Z,7.30
2019-04-27T15:48:42.887Z,7.30
2019-04-27T15:51:17.266Z,7.30
2019-04-27T15:53:46.026Z,7.30
2019-04-27T15:56:18.134Z,7.30
2019-04-27T15:58:48.379Z,7.30
2019-04-27T16:01:18.749Z,7.30
2019-04-27T16:03:48.806Z,7.20
2019-04-27T16:06:19.342Z,7.20
2019-04-27T16:08:49.470Z,7.10
2019-04-27T16:11:19.983Z,7.10
2019-04-27T16:13:50.383Z,7.20
2019-04-27T16:16:24.546Z,7.10
2019-04-27T16:18:52.542Z,7.10
2019-04-27T16:21:23.049Z,7.00
2019-04-27T16:23:53.201Z,7.10
2019-04-27T16:26:23.383Z,7.10
2019-04-27T16:28:53.777Z,7.00
2019-04-27T16:31:24.742Z,6.90
2019-04-27T16:33:59.237Z,6.90
2019-04-27T16:36:28.810Z,6.90
2019-04-27T16:39:03.610Z,6.70
2019-04-27T16:41:33.179Z,6.80
2019-04-27T16:44:06.817Z,6.70
2019-04-27T16:46:39.422Z,6.70
2019-04-27T16:49:13.780Z,6.60
2019-04-27T16:51:40.441Z,6.50
2019-04-27T16:54:17.315Z,6.50
2019-04-27T16:56:45.756Z,6.50
2019-04-27T16:59:36.625Z,6.30
2019-04-27T17:01:46.680Z,6.30
2019-04-27T17:04:17.510Z,6.30
2019-04-27T17:06:49.525Z,6.30
2019-04-27T17:09:19.390Z,6.30
2019-04-27T17:11:50.324Z,6.40
2019-04-27T17:14:35.110Z,6.50
2019-04-27T17:17:15.811Z,6.50
2019-04-27T17:19:51.855Z,6.50
2019-04-27T17:22:20.913Z,6.70
2019-04-27T17:24:50.831Z,6.80
2019-04-27T17:27:29.180Z,6.70
2019-04-27T17:30:01.405Z,6.90
2019-04-27T17:32:48.678Z,7.00
2019-04-27T17:35:18.455Z,7.00
2019-04-27T17:37:48.967Z,7.10
2019-04-27T17:40:18.938Z,7.20
2019-04-27T17:42:49.054Z,7.10
2019-04-27T17:45:19.393Z,7.10
2019-04-27T17:47:50.459Z,7.00
2019-04-27T17:50:25.188Z,6.90
2019-04-27T17:52:54.833Z,6.80
2019-04-27T17:55:25.462Z,6.90
2019-04-27T17:58:00.566Z,7.00
2019-04-27T18:00:28.079Z,6.90
2019-04-27T18:02:58.069Z,6.60
2019-04-27T18:05:28.563Z,6.50
2019-04-27T18:07:58.752Z,6.50
2019-04-27T18:10:28.732Z,6.50
2019-04-27T18:12:58.651Z,6.50
2019-04-27T18:15:28.765Z,6.50
2019-04-27T18:18:02.826Z,6.50
2019-04-27T18:20:32.680Z,6.50
2019-04-27T18:23:10.639Z,6.60
2019-04-27T18:25:43.718Z,6.60
2019-04-27T18:28:20.482Z,6.60
2019-04-27T18:31:02.573Z,6.50
2019-04-27T18:33:36.681Z,6.50
2019-04-27T18:36:07.219Z,6.50
2019-04-27T18:38:37.296Z,6.60
2019-04-27T18:41:11.305Z,6.40
2019-04-27T18:43:45.854Z,6.30
2019-04-27T18:46:10.430Z,6.30
2019-04-27T18:49:05.368Z,6.50
2019-04-27T18:51:57.923Z,6.50
2019-04-27T18:54:26.488Z,6.80
2019-04-27T18:57:02.668Z,6.90
2019-04-27T18:59:28.862Z,6.90
2019-04-27T19:01:58.740Z,6.90
2019-04-27T19:04:28.916Z,6.90
2019-04-27T19:07:00.137Z,7.10
2019-04-27T19:09:30.253Z,7.20
2019-04-27T19:12:00.351Z,7.30
2019-04-27T19:14:31.055Z,7.30
2019-04-27T19:17:01.170Z,7.30
2019-04-27T19:19:31.469Z,7.30
2019-04-27T19:22:01.896Z,7.30
2019-04-27T19:24:32.022Z,7.20
2019-04-27T19:27:18.682Z,7.20
2019-04-27T19:29:51.875Z,7.30
2019-04-27T19:32:21.789Z,7.20
2019-04-27T19:34:52.166Z,7.20
2019-04-27T19:37:22.899Z,7.20
2019-04-27T19:39:53.347Z,7.10
2019-04-27T19:42:23.256Z,7.10
2019-04-27T19:44:53.159Z,7.10
2019-04-27T19:47:23.082Z,7.20
2019-04-27T19:49:52.907Z,7.30
2019-04-27T19:52:23.029Z,7.30
2019-04-27T19:54:53.739Z,7.30
2019-04-27T19:57:33.897Z,7.30
2019-04-27T19:59:58.924Z,7.30
2019-04-27T20:02:29.222Z,7.30
2019-04-27T20:05:03.889Z,7.20
2019-04-27T20:07:34.078Z,7.10
2019-04-27T20:10:05.938Z,7.10
2019-04-27T20:12:36.745Z,7.10
2019-04-27T20:15:07.348Z,7.10
2019-04-27T20:17:37.293Z,7.10
2019-04-27T20:20:07.655Z,7.10
2019-04-27T20:22:38.058Z,7.10
2019-04-27T20:25:08.014Z,7.10
2019-04-27T20:27:46.239Z,7.10
2019-04-27T20:30:11.419Z,7.10
2019-04-27T20:32:41.540Z,7.10
2019-04-27T20:35:11.902Z,7.10
2019-04-27T20:37:42.364Z,7.10
2019-04-27T20:40:12.790Z,7.10
2019-04-27T20:42:46.179Z,7.00
2019-04-27T20:45:16.683Z,7.00
2019-04-27T20:47:46.816Z,7.00
2019-04-27T20:50:55.338Z,6.90
2019-04-27T20:53:30.964Z,6.90
2019-04-27T20:56:01.225Z,6.80
2019-04-27T20:58:31.655Z,6.70
2019-04-27T21:01:02.443Z,6.60
2019-04-27T21:03:37.443Z,6.50
2019-04-27T21:06:16.199Z,6.40
2019-04-27T21:08:47.618Z,6.30
2019-04-27T21:11:17.789Z,6.20
2019-04-27T21:13:48.210Z,6.00
2019-04-27T21:16:18.138Z,5.90
2019-04-27T21:19:34.663Z,5.80
2019-04-27T21:22:04.885Z,5.80
2019-04-27T21:24:34.835Z,5.80
2019-04-27T21:27:04.840Z,5.90
2019-04-27T21:29:35.259Z,6.10
2019-04-27T21:32:07.867Z,6.10
2019-04-27T21:34:37.177Z,6.10
2019-04-27T21:37:07.039Z,6.10
2019-04-27T21:39:37.415Z,6.20
2019-04-27T21:42:07.302Z,6.30
2019-04-27T21:44:37.391Z,6.20
2019-04-27T21:47:07.166Z,6.20
2019-04-27T21:49:37.574Z,6.30
2019-04-27T21:52:14.694Z,6.30
2019-04-27T21:54:46.063Z,6.30
2019-04-27T21:57:16.511Z,6.30
2019-04-27T21:59:46.678Z,6.30
2019-04-27T22:02:17.011Z,6.30
2019-04-27T22:04:47.114Z,6.30
2019-04-27T22:07:17.562Z,6.30
2019-04-27T22:09:47.686Z,6.30
2019-04-27T22:12:17.859Z,6.30
2019-04-27T22:14:47.990Z,6.30
2019-04-27T22:17:18.103Z,6.30
2019-04-27T22:19:48.272Z,6.30
2019-04-27T22:22:27.871Z,6.40
2019-04-27T22:25:06.526Z,6.40
2019-04-27T22:27:36.417Z,6.50
2019-04-27T22:30:07.098Z,6.50
2019-04-27T22:32:36.986Z,6.50
2019-04-27T22:35:06.938Z,6.50
2019-04-27T22:37:37.616Z,6.50
2019-04-27T22:40:27.999Z,6.40
2019-04-27T22:43:16.402Z,6.40
2019-04-27T22:45:46.907Z,6.30
2019-04-27T22:48:16.817Z,6.20
2019-04-27T22:50:46.646Z,6.30
2019-04-27T22:53:16.493Z,6.20
2019-04-27T22:56:08.635Z,6.10
2019-04-27T22:58:40.686Z,6.10
2019-04-27T23:01:28.604Z,6.10
2019-04-27T23:03:59.615Z,6.20
2019-04-27T23:06:29.514Z,6.20
2019-04-27T23:08:59.424Z,6.40
2019-04-27T23:11:31.211Z,6.40
2019-04-27T23:14:01.163Z,6.30
2019-04-27T23:16:32.699Z,6.40
2019-04-27T23:19:02.553Z,6.30
2019-04-27T23:21:32.394Z,6.20
2019-04-27T23:24:02.240Z,6.20
2019-04-27T23:26:32.063Z,6.20
2019-04-27T23:29:12.994Z,6.20
2019-04-27T23:31:43.145Z,6.20
2019-04-27T23:34:13.031Z,6.30
2019-04-27T23:36:44.276Z,6.30
2019-04-27T23:39:14.279Z,6.40
2019-04-27T23:41:44.346Z,6.40
2019-04-27T23:44:14.529Z,6.40
2019-04-27T23:46:44.418Z,6.30
2019-04-27T23:49:14.266Z,6.30
2019-04-27T23:51:52.390Z,6.40
2019-04-27T23:54:22.556Z,6.30
2019-04-27T23:56:52.682Z,6.30
2019-04-27T23:59:25.018Z,6.30
